Aeroporto :
LOGIN :

Iscrizione | Disclaimer

   EN    FR    IT 

 










Sommario :    VFR   VFR Marginale   IFR   IFR Intensivo   IFR Molto Intensivo
Visibilità : 
Base nubi : 
>= 8 km
>= 3000ft
5 / 8 km
1000 / 3000 ft
1500m / 5 km
500 / 1000 ft
800 / 1500m
200 / 500 ft
< 800m
< 200 ft
Simboli :   Temporali  Nebbia  Neve Forte  Precipitazioni Forti  Vento > 20 kt
SIGMETs :   Varie  Temporali  Ghiacco  Turbolenza  Onda orograficha  Ceneri Vulcaniche






- Altitudine del aeroporto : 465 ft
- Codice IATA : OMR


LROD - Oradea International

ULTIMO METAR :
  • 250400Z AUTO 12002KT 5000 BR NCD M07/M07 Q1024

METARs OBSOLETI :
  • 250330Z AUTO 04004KT 6000 NCD M06/M07 Q1024
  • 250300Z AUTO 09003KT 060V130 6000 NCD M06/M07 Q1024
  • 250230Z AUTO 12004KT 6000 NCD M06/M07 Q1024
  • 250200Z AUTO 10006KT 6000 NCD M06/M06 Q1024
  • 250130Z AUTO 12005KT 5000 BR NCD M06/M06 Q1025

TAF TAF LROD
Valido dal 25 a 03 ore il 25 a 12 ore UTC


250200Z 2503/2512 11007KT 5000 BR NSC
TEMPO 2503/2506 0800 FZFG BKN002
BECMG 2507/2509 CAVOK



MetMap, La meteo Aeronautica in un colpo d'occhio ! - Copyright ORBIFLY Dicembre 2007 - Disclaimer

ORBIFLY MET'MAP TEAM :

Programmazione e sviluppo : Alexandra Zaïnal
Concezione : Baudouin d'Aumeries
Aiuto per la programmazione : Marc-Olivier Méhu
Supporto tecnico e logistico : Manuel Goepfert
Aiuto per la traduzione : Arnaldo La Scala

Contatto : metmap@orbifly.com




FONTI E CREDITI :

   NOAA